Terminal Aerodrome Forecast
Issued by NWS Jacksonville, FL

Home | Current Version | Previous Version | Text Only | Print | Product List | Glossary On
Versions: 1 2 3 4 5 6 7 8 9 10 11 12 13 14 15 16 17
000
FTUS42 KJAX 280500
TAFSSI
TAF
KSSI 280538Z 2806/2906 23009KT P6SM SCT250
     FM281300 25011G16KT P6SM SCT030 SCT250
     FM282000 24012G18KT P6SM VCTS BKN035CB BKN250
     FM290300 25008KT P6SM SCT030 BKN250=

USA.gov is the U.S. government's official web portal to all federal, state and local government web resources and services.